createdAt,value
2022-09-11T00:03:00.551Z,16.54
2022-09-11T00:06:04.018Z,16.58
2022-09-11T00:09:06.786Z,16.50
2022-09-11T00:12:08.184Z,16.61
2022-09-11T00:15:10.319Z,16.55
2022-09-11T00:18:13.424Z,16.56
2022-09-11T00:21:15.804Z,16.55
2022-09-11T00:24:17.598Z,16.71
2022-09-11T00:27:19.133Z,16.63
2022-09-11T00:30:20.528Z,16.55
2022-09-11T00:33:22.768Z,16.62
2022-09-11T00:36:27.508Z,16.53
2022-09-11T00:39:29.101Z,16.54
2022-09-11T00:42:30.555Z,16.58
2022-09-11T00:45:32.211Z,16.52
2022-09-11T00:48:36.725Z,16.52
2022-09-11T00:51:38.750Z,16.54
2022-09-11T00:55:09.487Z,16.64
2022-09-11T00:58:17.457Z,16.57
2022-09-11T01:01:19.001Z,16.57
2022-09-11T01:04:21.888Z,16.61
2022-09-11T01:07:25.851Z,16.54
2022-09-11T01:10:38.192Z,16.54
2022-09-11T01:14:01.277Z,16.57
2022-09-11T01:17:19.334Z,16.58
2022-09-11T01:20:32.953Z,16.55
2022-09-11T01:23:55.028Z,16.63
2022-09-11T01:27:24.741Z,16.58
2022-09-11T01:30:37.475Z,16.65
2022-09-11T01:33:50.854Z,16.64
2022-09-11T01:37:00.918Z,16.65
2022-09-11T01:40:10.795Z,16.53
2022-09-11T01:43:20.327Z,16.70
2022-09-11T01:46:27.154Z,16.60
2022-09-11T01:49:39.990Z,16.52
2022-09-11T01:52:53.985Z,16.54
2022-09-11T01:56:16.547Z,16.64
2022-09-11T01:59:30.437Z,16.67
2022-09-11T02:02:40.348Z,16.52
2022-09-11T02:05:58.946Z,16.56
2022-09-11T02:09:06.025Z,16.54
2022-09-11T02:12:11.301Z,16.60
2022-09-11T02:15:15.736Z,16.48
2022-09-11T02:18:25.235Z,16.42
2022-09-11T02:21:28.622Z,16.44
2022-09-11T02:24:29.951Z,16.22
2022-09-11T02:27:31.929Z,16.43
2022-09-11T02:30:35.013Z,16.50
2022-09-11T02:33:37.636Z,16.46
2022-09-11T02:36:48.798Z,16.40
2022-09-11T02:40:04.770Z,16.47
2022-09-11T02:43:13.590Z,16.49
2022-09-11T02:46:34.389Z,16.44
2022-09-11T02:50:02.493Z,16.50
2022-09-11T02:53:17.510Z,16.58
2022-09-11T02:56:47.809Z,16.49
2022-09-11T02:59:54.418Z,16.63
2022-09-11T03:02:56.389Z,16.65
2022-09-11T03:05:58.001Z,16.53
2022-09-11T03:08:59.432Z,16.52
2022-09-11T03:12:03.445Z,16.62
2022-09-11T03:15:10.455Z,16.75
2022-09-11T03:18:15.571Z,16.53
2022-09-11T03:21:17.000Z,16.42
2022-09-11T03:24:18.609Z,16.37
2022-09-11T03:27:21.489Z,16.43
2022-09-11T03:30:22.883Z,16.36
2022-09-11T03:33:24.358Z,16.34
2022-09-11T03:36:25.938Z,16.38
2022-09-11T03:39:28.763Z,16.33
2022-09-11T03:42:33.383Z,16.47
2022-09-11T03:45:34.947Z,16.47
2022-09-11T03:48:36.586Z,16.49
2022-09-11T03:51:37.995Z,16.52
2022-09-11T03:54:39.746Z,16.52
2022-09-11T03:57:41.376Z,16.62
2022-09-11T04:00:44.358Z,16.55
2022-09-11T04:03:46.401Z,16.53
2022-09-11T04:06:56.707Z,16.45
2022-09-11T04:09:58.217Z,16.57
2022-09-11T04:13:00.096Z,16.41
2022-09-11T04:16:16.665Z,16.45
2022-09-11T04:19:21.625Z,16.49
2022-09-11T04:22:24.281Z,16.60
2022-09-11T04:25:26.296Z,16.68
2022-09-11T04:28:29.502Z,16.63
2022-09-11T04:31:31.009Z,16.48
2022-09-11T04:34:33.337Z,16.52
2022-09-11T04:37:35.445Z,16.76
2022-09-11T04:40:37.720Z,16.69
2022-09-11T04:43:40.786Z,16.54
2022-09-11T04:46:45.178Z,16.28
2022-09-11T04:49:46.778Z,16.12
2022-09-11T04:52:49.334Z,16.27
2022-09-11T04:55:51.309Z,16.40
2022-09-11T04:58:57.341Z,16.49
2022-09-11T05:02:00.173Z,16.46
2022-09-11T05:05:03.303Z,16.39
2022-09-11T05:08:06.353Z,16.26
2022-09-11T05:11:11.820Z,16.28
2022-09-11T05:14:13.281Z,16.21
2022-09-11T05:17:17.074Z,16.00
2022-09-11T05:20:18.762Z,15.79
2022-09-11T05:23:20.276Z,15.91
2022-09-11T05:26:23.797Z,16.00
2022-09-11T05:29:32.705Z,16.15
2022-09-11T05:32:43.853Z,15.97
2022-09-11T05:35:46.822Z,15.89
2022-09-11T05:38:49.153Z,15.99
2022-09-11T05:41:52.227Z,16.05
2022-09-11T05:44:53.695Z,16.22
2022-09-11T05:47:56.864Z,16.31
2022-09-11T05:51:07.163Z,15.98
2022-09-11T05:54:08.950Z,16.23
2022-09-11T05:57:10.560Z,16.18
2022-09-11T06:00:14.183Z,15.91
2022-09-11T06:03:26.411Z,15.99
2022-09-11T06:06:29.375Z,16.08
2022-09-11T06:09:30.805Z,16.13
2022-09-11T06:12:32.300Z,16.14
2022-09-11T06:15:46.137Z,16.38
2022-09-11T06:18:50.168Z,16.30
2022-09-11T06:21:54.202Z,16.21
2022-09-11T06:25:08.006Z,16.19
2022-09-11T06:28:09.476Z,16.31
2022-09-11T06:31:16.311Z,16.36
2022-09-11T06:34:22.259Z,16.36
2022-09-11T06:37:24.573Z,16.27
2022-09-11T06:40:26.529Z,16.20
2022-09-11T06:43:28.911Z,16.39
2022-09-11T06:46:30.349Z,16.40
2022-09-11T06:49:33.506Z,16.31
2022-09-11T06:52:54.065Z,16.35
2022-09-11T06:56:00.462Z,16.37
2022-09-11T06:59:03.659Z,16.34
2022-09-11T07:02:07.110Z,16.30
2022-09-11T07:05:10.774Z,16.26
2022-09-11T07:08:13.472Z,16.44
2022-09-11T07:11:17.736Z,16.44
2022-09-11T07:14:29.378Z,16.57
2022-09-11T07:17:41.181Z,16.54
2022-09-11T07:20:45.066Z,16.62
2022-09-11T07:23:49.457Z,16.62
2022-09-11T07:26:51.116Z,16.64
2022-09-11T07:30:03.153Z,16.74
2022-09-11T07:33:08.569Z,16.78
2022-09-11T07:36:14.497Z,16.79
2022-09-11T07:39:18.042Z,16.63
2022-09-11T07:42:29.044Z,16.51
2022-09-11T07:45:32.943Z,16.72
2022-09-11T07:48:34.542Z,16.75
2022-09-11T07:51:37.654Z,16.80
2022-09-11T07:54:41.276Z,16.80
2022-09-11T07:57:42.851Z,16.84
2022-09-11T08:00:45.296Z,16.84
2022-09-11T08:03:58.391Z,16.97
2022-09-11T08:07:01.749Z,16.96
2022-09-11T08:10:26.573Z,16.92
2022-09-11T08:13:30.343Z,16.84
2022-09-11T08:16:32.540Z,17.14
2022-09-11T08:19:34.997Z,17.32
2022-09-11T08:22:37.061Z,17.45
2022-09-11T08:25:39.883Z,17.62
2022-09-11T08:28:44.872Z,17.85
2022-09-11T08:31:46.689Z,17.65
2022-09-11T08:34:48.870Z,17.70
2022-09-11T08:37:54.731Z,17.74
2022-09-11T08:40:59.041Z,17.54
2022-09-11T08:44:09.853Z,17.56
2022-09-11T08:47:35.476Z,17.63
2022-09-11T08:50:41.524Z,17.66
2022-09-11T08:53:45.657Z,17.82
2022-09-11T08:56:52.029Z,17.99
2022-09-11T09:00:18.685Z,18.15
2022-09-11T09:03:55.497Z,18.44
2022-09-11T09:07:13.138Z,18.19
2022-09-11T09:10:33.390Z,18.22
2022-09-11T09:14:06.771Z,17.97
2022-09-11T09:17:16.908Z,18.41
2022-09-11T09:20:27.128Z,18.43
2022-09-11T09:23:37.206Z,18.36
2022-09-11T09:26:40.644Z,18.20
2022-09-11T09:29:47.097Z,18.29
2022-09-11T09:32:58.502Z,17.88
2022-09-11T09:36:13.278Z,18.08
2022-09-11T09:39:17.432Z,18.43
2022-09-11T09:42:47.495Z,18.49
2022-09-11T09:46:11.887Z,18.49
2022-09-11T09:49:27.761Z,18.45
2022-09-11T09:52:35.927Z,18.72
2022-09-11T09:55:40.455Z,18.70
2022-09-11T09:58:54.927Z,18.72
2022-09-11T10:01:56.588Z,19.71
2022-09-11T10:05:13.963Z,20.27
2022-09-11T10:08:33.509Z,20.26
2022-09-11T10:11:35.109Z,20.48
2022-09-11T10:14:58.355Z,19.61
2022-09-11T10:18:28.965Z,19.02
2022-09-11T10:21:35.710Z,20.30
2022-09-11T10:24:37.137Z,20.14
2022-09-11T10:27:59.107Z,19.95
2022-09-11T10:31:03.567Z,21.65
2022-09-11T10:34:06.251Z,21.60
2022-09-11T10:37:16.523Z,22.52
2022-09-11T10:40:23.089Z,22.08
2022-09-11T10:43:35.153Z,21.47
2022-09-11T10:46:40.836Z,20.51
2022-09-11T10:49:43.450Z,19.96
2022-09-11T10:53:09.775Z,19.44
2022-09-11T10:56:12.111Z,19.43
2022-09-11T10:59:18.945Z,19.19
2022-09-11T11:02:33.206Z,19.05
2022-09-11T11:05:59.939Z,19.46
2022-09-11T11:09:16.546Z,19.28
2022-09-11T11:12:41.437Z,19.39
2022-09-11T11:15:59.407Z,19.31
2022-09-11T11:19:07.758Z,19.21
2022-09-11T11:22:34.321Z,19.25
2022-09-11T11:26:04.405Z,20.26
2022-09-11T11:29:22.518Z,22.63
2022-09-11T11:32:48.869Z,24.08
2022-09-11T11:36:16.804Z,24.21
2022-09-11T11:40:02.655Z,25.58
2022-09-11T11:43:07.729Z,25.32
2022-09-11T11:46:18.391Z,24.76
2022-09-11T11:49:46.576Z,24.77
2022-09-11T11:53:06.234Z,24.61
2022-09-11T11:56:24.109Z,24.36
2022-09-11T11:59:36.809Z,23.97
2022-09-11T12:02:45.605Z,21.76
2022-09-11T12:05:47.134Z,20.74
2022-09-11T12:08:49.136Z,20.42
2022-09-11T12:11:53.234Z,20.42
2022-09-11T12:15:01.104Z,21.56
2022-09-11T12:18:23.840Z,22.63
2022-09-11T12:21:25.213Z,23.03
2022-09-11T12:24:52.293Z,22.97
2022-09-11T12:28:12.786Z,23.17
2022-09-11T12:31:16.394Z,22.84
2022-09-11T12:34:46.359Z,22.37
2022-09-11T12:37:56.938Z,22.19
2022-09-11T12:41:07.295Z,21.92
2022-09-11T12:44:30.693Z,21.42
2022-09-11T12:47:40.123Z,20.85
2022-09-11T12:50:55.711Z,20.96
2022-09-11T12:54:03.982Z,21.19
2022-09-11T12:57:19.741Z,21.11
2022-09-11T13:00:28.158Z,20.72
2022-09-11T13:03:30.233Z,20.60
2022-09-11T13:06:43.043Z,20.88
2022-09-11T13:09:49.361Z,21.02
2022-09-11T13:12:53.244Z,21.24
2022-09-11T13:15:58.271Z,21.24
2022-09-11T13:19:20.757Z,21.22
2022-09-11T13:22:28.562Z,21.40
2022-09-11T13:25:33.978Z,20.91
2022-09-11T13:28:47.824Z,21.44
2022-09-11T13:31:49.699Z,21.36
2022-09-11T13:34:56.773Z,21.48
2022-09-11T13:38:02.606Z,21.51
2022-09-11T13:41:13.725Z,21.09
2022-09-11T13:44:42.681Z,20.87
2022-09-11T13:47:44.189Z,21.58
2022-09-11T13:50:45.613Z,21.85
2022-09-11T13:53:58.307Z,21.44
2022-09-11T13:56:59.654Z,21.67
2022-09-11T14:00:01.815Z,21.51
2022-09-11T14:03:05.433Z,21.22
2022-09-11T14:06:14.942Z,21.48
2022-09-11T14:09:21.833Z,21.57
2022-09-11T14:12:24.772Z,21.78
2022-09-11T14:15:37.812Z,21.78
2022-09-11T14:18:45.378Z,21.79
2022-09-11T14:21:49.184Z,21.66
2022-09-11T14:25:19.497Z,21.43
2022-09-11T14:28:56.838Z,21.51
2022-09-11T14:32:33.777Z,21.83
2022-09-11T14:35:36.088Z,22.00
2022-09-11T14:38:38.191Z,22.03
2022-09-11T14:41:42.597Z,21.97
2022-09-11T14:44:44.333Z,21.93
2022-09-11T14:47:46.730Z,22.03
2022-09-11T14:50:48.571Z,21.84
2022-09-11T14:53:49.925Z,22.02
2022-09-11T14:56:52.471Z,22.04
2022-09-11T14:59:54.221Z,21.85
2022-09-11T15:02:56.116Z,22.04
2022-09-11T15:05:58.580Z,21.80
2022-09-11T15:09:01.495Z,21.98
2022-09-11T15:12:04.247Z,21.92
2022-09-11T15:15:06.042Z,21.82
2022-09-11T15:18:08.445Z,22.05
2022-09-11T15:21:09.956Z,22.09
2022-09-11T15:24:11.383Z,22.06
2022-09-11T15:27:12.791Z,21.86
2022-09-11T15:30:14.500Z,22.07
2022-09-11T15:33:16.052Z,22.08
2022-09-11T15:36:18.468Z,22.08
2022-09-11T15:39:21.045Z,22.11
2022-09-11T15:42:22.542Z,22.08
2022-09-11T15:45:24.030Z,21.76
2022-09-11T15:48:28.244Z,22.01
2022-09-11T15:51:29.744Z,21.89
2022-09-11T15:54:31.248Z,21.84
2022-09-11T15:57:34.485Z,21.74
2022-09-11T16:00:36.245Z,21.88
2022-09-11T16:03:37.614Z,21.91
2022-09-11T16:06:42.316Z,21.95
2022-09-11T16:09:44.035Z,21.84
2022-09-11T16:12:47.029Z,21.81
2022-09-11T16:15:49.234Z,21.76
2022-09-11T16:18:50.717Z,21.87
2022-09-11T16:21:53.554Z,21.83
2022-09-11T16:24:54.973Z,21.67
2022-09-11T16:27:57.822Z,21.67
2022-09-11T16:30:59.692Z,21.69
2022-09-11T16:34:04.428Z,21.62
2022-09-11T16:37:05.813Z,21.58
2022-09-11T16:40:08.322Z,21.74
2022-09-11T16:43:09.797Z,21.60
2022-09-11T16:46:13.919Z,21.53
2022-09-11T16:49:17.421Z,21.45
2022-09-11T16:52:19.153Z,21.43
2022-09-11T16:55:21.263Z,21.46
2022-09-11T16:58:22.853Z,21.22
2022-09-11T17:01:26.532Z,21.16
2022-09-11T17:04:28.171Z,21.08
2022-09-11T17:07:30.266Z,21.06
2022-09-11T17:10:31.705Z,20.99
2022-09-11T17:13:33.216Z,20.86
2022-09-11T17:16:35.653Z,20.66
2022-09-11T17:19:37.091Z,20.62
2022-09-11T17:22:39.607Z,20.63
2022-09-11T17:25:41.666Z,20.59
2022-09-11T17:28:47.190Z,20.55
2022-09-11T17:31:48.752Z,20.53
2022-09-11T17:34:51.450Z,20.23
2022-09-11T17:37:52.915Z,20.16
2022-09-11T17:40:58.926Z,20.06
2022-09-11T17:44:00.514Z,19.90
2022-09-11T17:47:02.449Z,19.95
2022-09-11T17:50:04.642Z,19.93
2022-09-11T17:53:06.177Z,19.68
2022-09-11T17:56:14.473Z,19.48
2022-09-11T17:59:16.004Z,19.33
2022-09-11T18:02:19.360Z,19.25
2022-09-11T18:05:21.081Z,19.32
2022-09-11T18:08:23.570Z,19.11
2022-09-11T18:11:25.138Z,19.26
2022-09-11T18:14:27.743Z,19.24
2022-09-11T18:17:29.869Z,19.05
2022-09-11T18:20:31.247Z,19.06
2022-09-11T18:23:32.712Z,18.81
2022-09-11T18:26:37.109Z,18.90
2022-09-11T18:29:39.938Z,19.04
2022-09-11T18:32:41.651Z,18.74
2022-09-11T18:35:44.158Z,18.54
2022-09-11T18:38:50.521Z,18.29
2022-09-11T18:41:55.216Z,18.31
2022-09-11T18:44:56.720Z,18.33
2022-09-11T18:48:00.026Z,18.26
2022-09-11T18:51:09.039Z,18.06
2022-09-11T18:54:15.675Z,17.94
2022-09-11T18:57:17.097Z,17.91
2022-09-11T19:00:20.909Z,18.05
2022-09-11T19:03:22.654Z,17.84
2022-09-11T19:06:26.570Z,17.66
2022-09-11T19:09:29.219Z,17.68
2022-09-11T19:12:30.636Z,17.62
2022-09-11T19:15:32.159Z,17.54
2022-09-11T19:18:35.235Z,17.45
2022-09-11T19:21:38.270Z,17.39
2022-09-11T19:24:39.673Z,17.56
2022-09-11T19:27:41.953Z,17.54
2022-09-11T19:30:43.468Z,17.40
2022-09-11T19:33:45.048Z,17.54
2022-09-11T19:36:46.668Z,17.68
2022-09-11T19:39:51.838Z,17.96
2022-09-11T19:42:53.452Z,17.69
2022-09-11T19:46:06.039Z,17.80
2022-09-11T19:49:07.689Z,17.79
2022-09-11T19:52:10.462Z,17.77
2022-09-11T19:55:12.082Z,17.21
2022-09-11T19:58:13.552Z,17.48
2022-09-11T20:01:17.896Z,17.77
2022-09-11T20:04:19.579Z,17.47
2022-09-11T20:07:21.109Z,17.43
2022-09-11T20:10:27.668Z,17.55
2022-09-11T20:13:29.237Z,17.17
2022-09-11T20:16:31.476Z,17.29
2022-09-11T20:19:32.932Z,17.44
2022-09-11T20:22:34.340Z,17.20
2022-09-11T20:25:36.486Z,17.33
2022-09-11T20:28:38.031Z,17.35
2022-09-11T20:31:47.009Z,17.34
2022-09-11T20:34:49.589Z,17.32
2022-09-11T20:37:52.705Z,17.21
2022-09-11T20:40:54.149Z,17.23
2022-09-11T20:43:57.373Z,17.08
2022-09-11T20:47:00.459Z,17.12
2022-09-11T20:50:02.325Z,17.04
2022-09-11T20:53:03.787Z,17.04
2022-09-11T20:56:10.066Z,17.18
2022-09-11T20:59:11.541Z,16.86
2022-09-11T21:02:14.747Z,16.95
2022-09-11T21:05:16.325Z,16.48
2022-09-11T21:08:17.997Z,16.81
2022-09-11T21:11:19.527Z,16.79
2022-09-11T21:14:21.063Z,16.60
2022-09-11T21:17:22.533Z,16.26
2022-09-11T21:20:24.157Z,16.64
2022-09-11T21:23:25.583Z,16.60
2022-09-11T21:26:28.788Z,16.62
2022-09-11T21:29:30.926Z,16.50
2022-09-11T21:32:33.399Z,16.26
2022-09-11T21:35:36.441Z,16.21
2022-09-11T21:38:38.168Z,16.01
2022-09-11T21:41:39.776Z,16.29
2022-09-11T21:44:41.320Z,16.49
2022-09-11T21:47:42.890Z,16.48
2022-09-11T21:50:44.368Z,16.04
2022-09-11T21:53:47.682Z,16.32
2022-09-11T21:56:49.167Z,16.55
2022-09-11T21:59:50.747Z,16.33
2022-09-11T22:02:52.258Z,16.47
2022-09-11T22:05:53.705Z,16.13
2022-09-11T22:08:56.113Z,16.14
2022-09-11T22:11:59.893Z,16.43
2022-09-11T22:15:02.050Z,16.53
2022-09-11T22:18:04.297Z,16.47
2022-09-11T22:21:07.009Z,15.95
2022-09-11T22:24:08.436Z,16.10
2022-09-11T22:27:10.689Z,16.25
2022-09-11T22:30:13.968Z,16.33
2022-09-11T22:33:15.387Z,15.97
2022-09-11T22:36:23.638Z,15.80
2022-09-11T22:39:25.118Z,15.58
2022-09-11T22:42:26.594Z,16.00
2022-09-11T22:45:28.093Z,15.85
2022-09-11T22:48:29.700Z,15.82
2022-09-11T22:51:32.722Z,15.85
2022-09-11T22:54:35.055Z,16.12
2022-09-11T22:57:37.913Z,16.17
2022-09-11T23:00:40.340Z,15.90
2022-09-11T23:03:42.003Z,16.06
2022-09-11T23:07:02.037Z,15.95
2022-09-11T23:10:03.682Z,15.95
2022-09-11T23:13:05.098Z,15.96
2022-09-11T23:16:15.329Z,16.01
2022-09-11T23:19:16.932Z,15.92
2022-09-11T23:22:18.332Z,15.87
2022-09-11T23:25:19.834Z,15.98
2022-09-11T23:28:21.272Z,15.87
2022-09-11T23:31:26.196Z,15.38
2022-09-11T23:34:27.613Z,15.24
2022-09-11T23:37:29.095Z,15.26
2022-09-11T23:40:33.413Z,15.50
2022-09-11T23:43:35.168Z,15.76
2022-09-11T23:46:36.681Z,15.67
2022-09-11T23:49:38.134Z,15.54
2022-09-11T23:52:39.574Z,15.29
2022-09-11T23:55:42.489Z,15.27
2022-09-11T23:58:45.625Z,15.44
